Time;durP1;ratioP1;P1;durP2;ratioP2;P2;SDS_P1;SDS_P2;PMS_P1;PMS_P2;Temp;Humidity;BMP_temperature;BMP_pressure;BME280_temperature;BME280_humidity;BME280_pressure;Samples;Min_cycle;Max_cycle;Signal;HPM_P1;HPM_P2
2022/05/28 00:00:03;;;;;;;2.92;1.05;;;;;;;10.70;56.69;99984.50;10252202;29;20467;-74
2022/05/28 00:05:05;;;;;;;5.63;1.20;;;;;;;10.65;57.06;99981.16;10254060;28;20053;-73
2022/05/28 00:10:11;;;;;;;5.53;1.00;;;;;;;10.63;56.52;99970.72;10250291;29;20103;-73
2022/05/28 00:15:13;;;;;;;4.05;1.23;;;;;;;10.60;56.35;99981.31;10251037;28;20101;-73
2022/05/28 00:20:17;;;;;;;5.13;1.48;;;;;;;10.66;56.12;99981.13;10251690;28;20051;-73
2022/05/28 00:25:19;;;;;;;7.15;1.30;;;;;;;10.61;56.96;99975.16;10253237;29;20051;-73
2022/05/28 00:30:21;;;;;;;6.70;1.42;;;;;;;10.44;57.23;99974.84;10251090;28;20054;-72
2022/05/28 00:35:22;;;;;;;9.77;1.58;;;;;;;10.37;57.98;99965.44;10249281;29;20117;-73
2022/05/28 00:40:27;;;;;;;4.55;1.13;;;;;;;10.55;56.82;99968.34;10250893;28;20097;-73
2022/05/28 00:45:30;;;;;;;6.15;1.08;;;;;;;10.61;56.74;99969.91;10249820;28;20455;-73
2022/05/28 00:50:34;;;;;;;6.25;1.20;;;;;;;10.53;57.10;99969.28;10251744;28;20109;-72
2022/05/28 00:55:36;;;;;;;7.22;1.45;;;;;;;10.40;57.57;99966.19;10249871;28;20228;-73
2022/05/28 01:00:38;;;;;;;6.63;1.30;;;;;;;10.34;57.71;99950.63;10249959;28;20428;-72
2022/05/28 01:05:48;;;;;;;6.72;1.30;;;;;;;10.25;58.21;99953.56;10249897;28;20555;-73
2022/05/28 01:11:16;;;;;;;4.82;1.27;;;;;;;10.30;58.29;99957.75;10250392;28;20100;-73
2022/05/28 01:16:28;;;;;;;5.03;1.15;;;;;;;10.13;58.70;99941.63;10250158;29;20109;-72
2022/05/28 01:21:46;;;;;;;5.10;1.10;;;;;;;10.27;58.44;99949.09;10248874;28;20051;-73
2022/05/28 01:27:09;;;;;;;4.72;1.30;;;;;;;10.15;58.91;99942.44;10249509;29;20047;-73
2022/05/28 01:32:12;;;;;;;5.13;1.50;;;;;;;10.08;59.20;99936.50;10266805;28;20082;-72
2022/05/28 01:37:16;;;;;;;7.43;1.40;;;;;;;10.18;59.24;99920.47;10249223;28;20382;-73
2022/05/28 01:42:18;;;;;;;7.47;1.13;;;;;;;10.04;59.32;99928.78;10247273;28;20051;-73
2022/05/28 01:47:22;;;;;;;5.55;1.20;;;;;;;10.10;59.10;99912.84;10248499;28;20052;-72
2022/05/28 01:52:26;;;;;;;8.90;1.55;;;;;;;10.03;59.65;99917.41;10250685;28;20053;-72
2022/05/28 01:57:28;;;;;;;6.70;1.42;;;;;;;9.98;59.99;99908.81;10247194;29;20043;-72
2022/05/28 02:02:29;;;;;;;7.90;1.63;;;;;;;9.82;60.54;99903.19;10248889;28;20051;-73
2022/05/28 02:07:31;;;;;;;4.88;1.30;;;;;;;9.62;61.63;99910.81;10248306;29;20295;-72
2022/05/28 02:12:50;;;;;;;7.68;1.50;;;;;;;9.66;61.65;99907.19;10248477;28;20485;-72
2022/05/28 02:17:55;;;;;;;7.05;1.52;;;;;;;9.77;61.49;99912.13;10248815;28;20051;-72
2022/05/28 02:23:13;;;;;;;9.88;1.70;;;;;;;9.65;61.83;99904.59;10247226;28;20497;-72
2022/05/28 02:28:16;;;;;;;4.43;1.52;;;;;;;9.64;62.12;99902.88;10279080;22;20091;-67
2022/05/28 02:33:19;;;;;;;4.78;1.00;;;;;;;9.53;62.83;99901.47;10328427;28;20046;-66
2022/05/28 02:38:20;;;;;;;7.15;1.60;;;;;;;9.55;62.63;99897.00;10327041;28;20043;-66
2022/05/28 02:43:22;;;;;;;7.57;1.70;;;;;;;9.46;62.87;99892.03;10327113;28;20170;-66
2022/05/28 02:48:24;;;;;;;8.20;1.67;;;;;;;9.44;63.13;99883.38;10327340;28;20050;-66
2022/05/28 02:53:26;;;;;;;6.60;1.48;;;;;;;9.53;62.92;99893.59;10326285;28;20524;-66
2022/05/28 02:58:29;;;;;;;12.15;1.73;;;;;;;9.48;63.19;99886.75;10326648;28;20072;-66
2022/05/28 03:03:31;;;;;;;9.65;1.30;;;;;;;9.45;63.40;99884.22;10326936;28;20048;-66
2022/05/28 03:08:33;;;;;;;5.13;1.55;;;;;;;9.34;63.50;99871.41;10332188;28;20054;-68
2022/05/28 03:13:35;;;;;;;5.53;1.13;;;;;;;9.38;63.41;99873.03;10333325;28;20055;-66
2022/05/28 03:18:37;;;;;;;5.35;1.30;;;;;;;9.40;63.58;99875.63;10333489;28;20042;-66
2022/05/28 03:23:38;;;;;;;5.55;1.48;;;;;;;9.34;64.15;99871.41;10334113;28;20062;-66
2022/05/28 03:28:40;;;;;;;5.40;1.55;;;;;;;9.29;64.47;99879.41;10332187;28;20043;-66
2022/05/28 03:33:42;;;;;;;5.68;1.27;;;;;;;9.35;64.01;99875.75;10333261;28;20054;-66
2022/05/28 03:38:44;;;;;;;4.68;1.17;;;;;;;9.39;64.23;99880.03;10333296;28;20440;-66
2022/05/28 03:43:45;;;;;;;5.75;1.30;;;;;;;9.45;64.62;99869.34;10331831;28;20545;-66
2022/05/28 03:48:47;;;;;;;8.73;1.25;;;;;;;9.44;64.27;99875.50;10332825;28;20569;-66
2022/05/28 03:53:49;;;;;;;6.03;1.40;;;;;;;9.47;64.28;99882.41;10332705;28;20083;-66
2022/05/28 03:58:50;;;;;;;4.65;0.93;;;;;;;9.61;63.57;99888.13;10332586;28;20038;-66
2022/05/28 04:03:52;;;;;;;4.82;1.10;;;;;;;9.64;63.48;99887.16;10332108;28;20508;-66
2022/05/28 04:08:53;;;;;;;5.65;0.98;;;;;;;9.60;63.32;99878.50;10331568;28;20397;-66
2022/05/28 04:13:55;;;;;;;5.07;1.02;;;;;;;9.59;64.13;99879.41;10332349;28;20111;-66
2022/05/28 04:18:56;;;;;;;4.68;0.90;;;;;;;9.79;63.35;99877.06;10331370;28;20039;-66
2022/05/28 04:23:58;;;;;;;5.85;1.70;;;;;;;9.84;63.23;99869.03;10331809;28;20080;-67
2022/05/28 04:29:00;;;;;;;5.65;1.02;;;;;;;10.02;63.30;99894.69;10330259;28;20042;-67
2022/05/28 04:34:01;;;;;;;4.22;0.93;;;;;;;9.98;63.22;99892.22;10331354;28;20085;-67
2022/05/28 04:39:03;;;;;;;4.30;0.93;;;;;;;10.06;62.65;99896.31;10331118;28;20099;-67
2022/05/28 04:44:05;;;;;;;4.88;1.10;;;;;;;10.02;63.88;99901.72;10331048;28;20050;-67
2022/05/28 04:49:06;;;;;;;4.90;1.05;;;;;;;10.06;64.85;99927.84;10330797;28;20043;-68
2022/05/28 04:54:08;;;;;;;4.53;1.30;;;;;;;9.73;70.23;99934.09;10328943;28;20119;-69
2022/05/28 04:59:10;;;;;;;8.60;1.30;;;;;;;9.29;74.19;99939.72;10330486;28;20130;-69
2022/05/28 05:04:11;;;;;;;3.78;1.20;;;;;;;9.28;74.71;99938.03;10330629;28;20105;-69
2022/05/28 05:09:13;;;;;;;6.07;1.38;;;;;;;9.26;77.54;99949.47;10330296;28;20054;-69
2022/05/28 05:14:14;;;;;;;6.82;1.38;;;;;;;9.40;76.10;99964.81;10330499;28;20050;-69
2022/05/28 05:19:16;;;;;;;3.50;1.20;;;;;;;9.28;78.48;99966.00;10330160;28;20081;-69
2022/05/28 05:24:17;;;;;;;4.10;1.25;;;;;;;9.32;77.82;99957.16;10329941;28;20046;-69
2022/05/28 05:29:19;;;;;;;5.28;1.10;;;;;;;9.24;79.89;99957.38;10329967;28;20047;-69
2022/05/28 05:34:20;;;;;;;6.00;2.05;;;;;;;9.09;80.13;99978.78;10330559;28;20046;-69
2022/05/28 05:39:22;;;;;;;4.75;1.23;;;;;;;8.94;79.70;99973.91;10328013;28;20058;-68
2022/05/28 05:44:24;;;;;;;2.53;0.70;;;;;;;8.66;78.38;99945.81;10328142;28;20115;-68
2022/05/28 05:49:25;;;;;;;3.92;0.63;;;;;;;8.68;75.87;99943.16;10329153;28;20047;-67
2022/05/28 05:54:27;;;;;;;2.85;0.70;;;;;;;8.71;77.69;99937.81;10328809;28;20087;-67
2022/05/28 05:59:28;;;;;;;2.65;0.43;;;;;;;8.65;77.82;99953.72;10328634;28;20046;-67
2022/05/28 06:04:30;;;;;;;1.70;0.50;;;;;;;8.52;78.72;99959.25;10328376;28;20046;-67
2022/05/28 06:09:32;;;;;;;0.63;0.40;;;;;;;8.56;79.44;99939.06;10329219;28;20476;-67
2022/05/28 06:14:34;;;;;;;1.02;0.40;;;;;;;9.06;78.37;99932.50;10326830;28;20061;-68
2022/05/28 06:19:35;;;;;;;1.15;0.28;;;;;;;9.51;75.68;99926.88;10329142;28;20043;-68
2022/05/28 06:24:37;;;;;;;1.65;0.32;;;;;;;9.97;75.67;99922.88;10328034;28;20054;-68
2022/05/28 06:29:38;;;;;;;0.57;0.20;;;;;;;10.88;69.99;99920.78;10328803;28;20051;-68
2022/05/28 06:34:40;;;;;;;0.73;0.20;;;;;;;11.40;70.17;99918.06;10328703;28;20058;-68
2022/05/28 06:39:42;;;;;;;1.05;0.40;;;;;;;11.57;67.71;99929.69;10327165;28;20046;-68
2022/05/28 06:44:43;;;;;;;2.10;0.30;;;;;;;11.66;66.39;99925.84;10334591;28;20088;-67
2022/05/28 06:51:01;;;;;;;1.48;0.30;;;;;;;12.02;65.54;99926.22;10335519;28;20446;-67
2022/05/28 06:55:07;;;;;;;2.88;0.40;;;;;;;11.91;61.52;99932.81;10334014;28;20092;-67
2022/05/28 07:00:09;;;;;;;1.55;0.60;;;;;;;12.05;62.65;99931.38;10334431;28;20042;-67
2022/05/28 07:05:12;;;;;;;2.67;0.50;;;;;;;11.88;63.61;99946.13;10334319;28;20050;-67
2022/05/28 07:10:13;;;;;;;2.17;0.60;;;;;;;11.99;63.29;99938.66;10334446;28;20524;-67
2022/05/28 07:15:15;;;;;;;3.25;0.88;;;;;;;12.02;61.28;99928.00;10334064;28;20091;-67
2022/05/28 07:20:17;;;;;;;1.27;0.50;;;;;;;12.72;62.43;99919.00;10316358;28;20050;-67
2022/05/28 07:25:19;;;;;;;3.65;1.00;;;;;;;12.69;58.46;99940.22;10333194;28;20046;-67
2022/05/28 07:30:20;;;;;;;3.17;0.90;;;;;;;12.17;59.76;99926.53;10333570;28;20392;-67
2022/05/28 07:35:22;;;;;;;3.40;0.80;;;;;;;11.82;62.96;99926.09;10333046;28;20388;-67
2022/05/28 07:40:27;;;;;;;3.17;0.70;;;;;;;11.10;66.14;99936.66;10333481;28;20126;-67
2022/05/28 07:45:30;;;;;;;4.57;0.82;;;;;;;10.92;66.82;99929.41;10333028;28;20088;-66
2022/05/28 07:50:32;;;;;;;4.32;0.88;;;;;;;11.11;63.04;99927.84;10332562;28;20042;-67
2022/05/28 07:55:35;;;;;;;4.18;0.85;;;;;;;11.21;62.23;99934.53;10333183;28;20050;-67
2022/05/28 08:00:38;;;;;;;2.72;0.85;;;;;;;11.27;62.87;99926.41;10330682;28;20042;-66
2022/05/28 08:05:46;;;;;;;4.03;0.80;;;;;;;11.82;61.09;99941.91;10332049;28;20042;-67
2022/05/28 08:10:49;;;;;;;3.78;0.90;;;;;;;12.60;58.30;99937.03;10332294;28;20483;-67
2022/05/28 08:15:53;;;;;;;4.63;1.08;;;;;;;12.83;56.80;99928.16;10332272;28;20054;-67
2022/05/28 08:26:19;;;;;;;6.90;0.98;;;;;;;12.44;56.77;99927.19;10332378;28;20495;-67
2022/05/28 08:31:22;;;;;;;2.22;0.65;;;;;;;11.95;59.32;99924.72;10348029;22;20057;-75
2022/05/28 08:36:24;;;;;;;2.40;0.80;;;;;;;12.28;59.17;99919.06;10339496;28;20050;-75
2022/05/28 08:41:34;;;;;;;2.28;0.63;;;;;;;12.57;58.00;99913.44;10339873;28;20125;-73
2022/05/28 08:46:37;;;;;;;4.13;0.70;;;;;;;12.55;57.12;99933.75;10336482;28;20051;-75
2022/05/28 08:51:53;;;;;;;2.58;0.60;;;;;;;12.25;55.67;99945.53;10338098;28;20054;-73
2022/05/28 08:57:00;;;;;;;3.33;1.00;;;;;;;12.31;54.72;99946.16;10407723;28;20054;-73
2022/05/28 09:02:06;;;;;;;2.42;0.70;;;;;;;12.32;56.23;99944.38;10338298;28;20046;-74
2022/05/28 09:07:14;;;;;;;3.03;0.82;;;;;;;12.79;57.41;99936.25;10405430;28;20046;-74
2022/05/28 09:12:29;;;;;;;2.90;0.82;;;;;;;13.41;54.44;99931.84;10333681;28;20050;-72
2022/05/28 09:17:37;;;;;;;2.88;0.70;;;;;;;13.17;52.28;99937.25;10320128;28;20095;-73
2022/05/28 09:22:39;;;;;;;3.58;1.25;;;;;;;12.84;51.72;99923.75;10329254;28;20552;-73
2022/05/28 09:28:18;;;;;;;4.05;1.10;;;;;;;13.03;51.70;99935.22;10330093;28;20046;-74
2022/05/28 09:33:54;;;;;;;2.17;0.90;;;;;;;13.08;52.45;99951.72;10309210;28;20455;-72
2022/05/28 09:39:25;;;;;;;4.28;0.90;;;;;;;13.62;50.15;99926.44;10287536;28;20047;-71
2022/05/28 09:44:36;;;;;;;2.53;0.95;;;;;;;13.88;48.68;99938.44;10287280;28;20043;-71
2022/05/28 09:49:55;;;;;;;2.78;0.70;;;;;;;14.43;50.78;99934.06;10291200;28;20129;-70
2022/05/28 09:55:15;;;;;;;2.63;0.65;;;;;;;14.03;48.95;99928.94;10289067;28;20122;-70
2022/05/28 10:00:21;;;;;;;2.42;0.75;;;;;;;14.24;51.09;99931.47;10289446;28;20393;-71
2022/05/28 10:05:22;;;;;;;3.40;0.70;;;;;;;14.23;48.56;99933.25;10290587;28;20046;-69
2022/05/28 10:10:30;;;;;;;2.75;1.00;;;;;;;15.10;47.94;99936.00;10296002;28;20089;-71
2022/05/28 10:15:39;;;;;;;2.97;0.60;;;;;;;15.04;44.49;99938.94;10319276;28;20392;-70
2022/05/28 10:20:41;;;;;;;3.33;0.88;;;;;;;14.71;46.80;99928.31;10337228;28;20517;-70
2022/05/28 10:25:50;;;;;;;3.22;0.65;;;;;;;14.60;45.42;99929.69;10337353;28;20058;-69
2022/05/28 10:30:52;;;;;;;2.05;0.68;;;;;;;15.01;45.80;99920.59;10336360;28;20492;-69
2022/05/28 10:36:06;;;;;;;1.88;0.60;;;;;;;14.10;46.79;99938.28;10337610;28;20156;-69
2022/05/28 10:41:20;;;;;;;3.10;0.80;;;;;;;13.93;46.78;99950.59;10336064;28;20042;-70
2022/05/28 10:46:52;;;;;;;3.17;0.98;;;;;;;14.34;46.21;99935.38;10336684;28;20047;-70
2022/05/28 10:52:14;;;;;;;2.17;0.50;;;;;;;15.46;44.57;99924.41;10336111;28;20046;-70
2022/05/28 10:57:47;;;;;;;2.58;0.70;;;;;;;15.82;43.31;99922.44;10334770;28;20051;-69
2022/05/28 11:03:04;;;;;;;2.42;0.73;;;;;;;16.52;41.06;99920.25;10335282;28;20054;-70
2022/05/28 11:08:34;;;;;;;3.70;0.80;;;;;;;16.24;41.59;99923.59;10335769;28;20057;-70
2022/05/28 11:13:42;;;;;;;3.75;0.85;;;;;;;16.67;40.03;99925.59;10334077;28;20512;-70
2022/05/28 11:19:20;;;;;;;3.92;0.50;;;;;;;16.87;41.96;99918.19;10334627;28;20042;-70
2022/05/28 11:24:53;;;;;;;1.70;0.55;;;;;;;16.92;39.64;99931.19;10417999;28;20076;-70
2022/05/28 11:30:19;;;;;;;3.05;1.02;;;;;;;16.37;42.29;99927.25;10402446;28;20061;-69
2022/05/28 11:35:48;;;;;;;2.22;0.80;;;;;;;16.44;40.44;99921.63;10416977;28;20089;-69
2022/05/28 11:41:07;;;;;;;6.05;0.95;;;;;;;16.53;40.88;99919.28;10417587;28;20049;-70
2022/05/28 11:46:21;;;;;;;1.85;0.77;;;;;;;15.61;41.03;99923.56;10417296;28;20111;-70
2022/05/28 11:51:29;;;;;;;1.67;0.63;;;;;;;16.32;43.02;99900.16;10401507;28;20530;-70
2022/05/28 11:56:30;;;;;;;2.65;0.55;;;;;;;16.93;40.91;99897.53;10409715;28;20461;-70
2022/05/28 12:01:47;;;;;;;3.53;0.70;;;;;;;16.47;42.62;99901.09;10332213;28;20043;-69
2022/05/28 12:07:00;;;;;;;4.72;0.50;;;;;;;16.82;41.41;99903.47;10332246;28;20054;-69
2022/05/28 12:12:17;;;;;;;1.48;0.45;;;;;;;16.05;42.41;99907.03;10334394;28;20104;-70
2022/05/28 12:17:18;;;;;;;1.75;0.50;;;;;;;16.83;41.65;99879.50;10332101;28;20042;-70
2022/05/28 12:22:25;;;;;;;3.72;0.52;;;;;;;16.94;41.65;99876.19;10332858;28;20457;-70
2022/05/28 12:27:36;;;;;;;0.88;0.40;;;;;;;16.93;40.64;99886.91;10299027;28;20088;-70
2022/05/28 12:32:48;;;;;;;1.35;0.50;;;;;;;16.94;43.44;99881.50;10288176;28;20116;-70
2022/05/28 12:38:01;;;;;;;1.70;0.55;;;;;;;17.38;41.96;99893.88;10293127;28;20051;-71
2022/05/28 12:43:26;;;;;;;2.15;0.55;;;;;;;16.94;40.41;99888.63;10290600;28;20054;-70
2022/05/28 12:48:32;;;;;;;1.40;0.53;;;;;;;15.92;42.40;99888.31;10291959;28;20515;-70
2022/05/28 12:53:48;;;;;;;1.50;0.57;;;;;;;15.37;42.67;99900.13;10290533;28;20047;-69
2022/05/28 12:58:50;;;;;;;1.52;0.50;;;;;;;16.34;40.92;99871.75;10290243;28;20485;-69
2022/05/28 13:03:53;;;;;;;2.67;0.50;;;;;;;17.05;38.45;99873.75;10290189;28;20050;-69
2022/05/28 13:09:08;;;;;;;1.42;0.47;;;;;;;17.48;40.14;99876.38;10288919;28;20054;-70
2022/05/28 13:14:22;;;;;;;2.30;0.70;;;;;;;17.17;39.31;99864.16;10288890;28;20050;-69
2022/05/28 13:19:50;;;;;;;2.80;0.73;;;;;;;17.35;38.11;99862.16;10291110;28;20484;-68
2022/05/28 13:25:13;;;;;;;2.03;0.50;;;;;;;17.04;39.11;99857.91;10289554;28;20108;-69
2022/05/28 13:30:27;;;;;;;4.35;0.80;;;;;;;16.44;40.76;99866.78;10290279;28;20096;-68
2022/05/28 13:35:41;;;;;;;2.25;0.88;;;;;;;16.06;41.19;99869.81;10291316;28;20108;-68
2022/05/28 13:40:43;;;;;;;1.85;0.65;;;;;;;16.05;39.60;99877.88;10289257;28;20104;-69
2022/05/28 13:45:48;;;;;;;3.33;1.17;;;;;;;16.04;40.13;99871.72;10288905;28;20043;-70
2022/05/28 13:50:54;;;;;;;2.20;0.68;;;;;;;15.77;42.12;99875.94;10287977;28;20500;-70
2022/05/28 13:55:58;;;;;;;3.40;0.88;;;;;;;15.32;42.84;99882.78;10288969;28;20042;-69
2022/05/28 14:01:03;;;;;;;2.17;0.60;;;;;;;15.07;43.37;99892.00;10289559;28;20077;-70
2022/05/28 14:06:17;;;;;;;2.08;0.70;;;;;;;15.16;42.24;99893.31;10288418;28;20104;-69
2022/05/28 14:11:46;;;;;;;2.65;0.57;;;;;;;14.99;42.77;99890.69;10288705;28;20167;-69
2022/05/28 14:16:51;;;;;;;2.65;0.77;;;;;;;15.27;42.57;99892.72;10288771;28;20055;-68
2022/05/28 14:22:05;;;;;;;3.30;0.70;;;;;;;15.52;41.49;99895.78;10287873;28;20053;-69
2022/05/28 14:27:14;;;;;;;3.50;0.77;;;;;;;15.24;43.40;99900.84;10288733;28;20061;-70
2022/05/28 14:32:18;;;;;;;1.70;0.45;;;;;;;15.21;42.21;99898.38;10265342;22;20408;-66
2022/05/28 14:37:26;;;;;;;2.97;0.75;;;;;;;15.22;43.51;99894.78;10246159;29;20047;-68
2022/05/28 14:42:32;;;;;;;3.28;0.82;;;;;;;15.66;41.79;99889.75;10248245;28;20043;-67
2022/05/28 14:47:35;;;;;;;3.00;0.80;;;;;;;15.43;42.93;99888.34;10248292;29;20093;-66
2022/05/28 14:52:40;;;;;;;2.50;0.50;;;;;;;15.97;43.05;99885.41;10247203;28;20047;-66
2022/05/28 14:57:46;;;;;;;2.13;0.57;;;;;;;16.48;41.96;99883.38;10245991;29;20047;-66
2022/05/28 15:02:47;;;;;;;2.08;0.85;;;;;;;16.85;40.96;99866.13;10248833;28;20047;-66
2022/05/28 15:07:53;;;;;;;0.80;0.40;;;;;;;17.30;40.17;99867.75;10254548;29;20101;-66
2022/05/28 15:13:22;;;;;;;2.97;0.60;;;;;;;17.11;39.29;99857.44;10253675;28;20105;-66
2022/05/28 15:18:26;;;;;;;1.63;0.50;;;;;;;16.84;39.95;99848.50;10253221;28;20047;-66
2022/05/28 15:23:30;;;;;;;1.83;0.80;;;;;;;16.18;39.76;99847.06;10252982;28;20051;-66
2022/05/28 15:28:32;;;;;;;3.05;0.90;;;;;;;15.81;40.26;99861.56;10252021;29;20047;-66
2022/05/28 15:33:33;;;;;;;2.35;0.80;;;;;;;15.42;42.18;99868.09;10253036;28;20047;-66
2022/05/28 15:38:35;;;;;;;3.70;1.67;;;;;;;15.04;43.77;99873.63;10252938;29;20039;-66
2022/05/28 15:43:39;;;;;;;2.92;1.60;;;;;;;15.13;43.57;99865.19;10252803;28;20082;-66
2022/05/28 15:48:40;;;;;;;3.03;1.10;;;;;;;14.94;44.77;99869.75;10252946;29;20078;-66
2022/05/28 15:53:43;;;;;;;6.65;0.90;;;;;;;14.82;47.15;99904.78;10251987;28;20113;-67
2022/05/28 15:58:45;;;;;;;3.10;0.90;;;;;;;14.14;49.11;99894.91;10251610;29;20054;-66
2022/05/28 16:03:47;;;;;;;3.80;1.30;;;;;;;14.20;49.12;99891.09;10253865;28;20408;-67
2022/05/28 16:08:49;;;;;;;2.47;0.82;;;;;;;14.15;48.38;99890.47;10251485;29;20047;-67
2022/05/28 16:13:52;;;;;;;2.67;0.80;;;;;;;14.37;48.91;99885.84;10250220;28;20043;-67
2022/05/28 16:18:56;;;;;;;2.05;0.68;;;;;;;14.46;46.84;99878.38;10251271;28;20058;-67
2022/05/28 16:23:57;;;;;;;1.80;0.80;;;;;;;14.38;47.30;99879.63;10251007;28;20047;-67
2022/05/28 16:29:02;;;;;;;2.13;0.90;;;;;;;14.26;45.33;99872.31;10251245;29;20043;-67
2022/05/28 16:34:04;;;;;;;3.70;0.80;;;;;;;14.20;45.81;99884.97;10251021;28;20102;-67
2022/05/28 16:39:07;;;;;;;1.55;0.50;;;;;;;14.38;45.58;99884.06;10250650;29;20407;-67
2022/05/28 16:44:11;;;;;;;2.95;0.70;;;;;;;14.65;44.22;99876.53;10250338;28;20048;-67
2022/05/28 16:49:13;;;;;;;3.05;0.80;;;;;;;14.88;42.76;99888.63;10251538;28;20553;-67
2022/05/28 16:54:14;;;;;;;2.50;0.90;;;;;;;14.84;43.63;99881.78;10250214;28;20047;-67
2022/05/28 16:59:17;;;;;;;2.20;0.77;;;;;;;14.96;43.99;99878.47;10250028;28;20493;-67
2022/05/28 17:04:19;;;;;;;2.30;0.70;;;;;;;14.99;44.45;99878.31;10250433;28;20081;-67
2022/05/28 17:09:21;;;;;;;2.47;0.88;;;;;;;14.76;44.50;99876.00;10249449;28;20496;-66
2022/05/28 17:14:24;;;;;;;3.25;0.85;;;;;;;14.61;45.50;99872.38;10249834;28;20101;-67
2022/05/28 17:19:26;;;;;;;1.80;0.60;;;;;;;14.55;46.03;99878.81;10249187;29;20051;-67
2022/05/28 17:24:29;;;;;;;3.05;0.90;;;;;;;14.35;47.27;99874.50;10248526;28;20043;-67
2022/05/28 17:29:32;;;;;;;2.35;0.80;;;;;;;14.18;47.50;99881.56;10247939;29;20043;-67
2022/05/28 17:34:38;;;;;;;3.35;1.42;;;;;;;14.14;47.88;99878.19;10248784;28;20051;-67
2022/05/28 17:39:39;;;;;;;4.30;1.92;;;;;;;13.91;48.44;99879.31;10248978;28;20386;-67
2022/05/28 17:44:41;;;;;;;2.35;0.90;;;;;;;13.87;48.25;99881.25;10247202;28;20077;-67
2022/05/28 17:49:43;;;;;;;2.97;1.60;;;;;;;13.83;48.47;99878.81;10248286;29;20074;-67
2022/05/28 17:54:45;;;;;;;3.03;1.00;;;;;;;13.86;48.50;99883.97;10248620;28;20452;-67
2022/05/28 17:59:46;;;;;;;3.42;1.00;;;;;;;13.77;48.99;99876.47;10248318;29;20086;-67
2022/05/28 18:04:52;;;;;;;2.17;1.20;;;;;;;13.85;49.12;99884.88;10249238;28;20124;-67
2022/05/28 18:09:54;;;;;;;3.63;1.05;;;;;;;13.80;49.22;99884.25;10247443;28;20043;-65
2022/05/28 18:14:55;;;;;;;4.43;0.90;;;;;;;13.66;49.07;99873.47;10247446;28;20101;-67
2022/05/28 18:19:59;;;;;;;2.88;1.02;;;;;;;13.58;49.55;99890.53;10247447;29;20130;-67
2022/05/28 18:25:02;;;;;;;3.35;1.02;;;;;;;13.75;49.31;99883.59;10248348;28;20054;-67
2022/05/28 18:30:06;;;;;;;1.50;0.70;;;;;;;13.56;49.92;99895.03;10247610;29;20054;-68
2022/05/28 18:35:09;;;;;;;3.55;0.98;;;;;;;13.61;49.89;99890.41;10247578;28;20051;-68
2022/05/28 18:40:20;;;;;;;2.03;0.88;;;;;;;13.27;51.09;99890.22;10225976;28;20396;-68
2022/05/28 18:45:22;;;;;;;0.95;0.73;;;;;;;13.09;51.63;99886.59;10245245;29;20097;-67
2022/05/28 18:50:25;;;;;;;1.27;0.70;;;;;;;13.01;51.36;99886.06;10214691;29;20127;-68
2022/05/28 18:55:27;;;;;;;2.33;1.00;;;;;;;12.97;51.77;99893.28;10237335;28;20516;-68
2022/05/28 19:00:29;;;;;;;2.13;0.90;;;;;;;12.65;53.40;99892.00;10254143;28;20047;-68
2022/05/28 19:05:30;;;;;;;1.25;0.57;;;;;;;12.52;53.95;99889.03;10252440;29;20066;-68
2022/05/28 19:10:32;;;;;;;2.28;0.50;;;;;;;12.38;54.71;99894.88;10246707;28;20043;-68
2022/05/28 19:15:42;;;;;;;2.13;0.68;;;;;;;12.32;55.22;99902.19;10213836;29;20048;-68
2022/05/28 19:20:47;;;;;;;2.08;0.80;;;;;;;12.09;56.52;99904.00;10212105;28;20055;-68
2022/05/28 19:31:09;;;;;;;1.67;0.80;;;;;;;11.95;57.77;99902.81;10213090;29;20512;-68
2022/05/28 19:36:10;;;;;;;1.42;0.60;;;;;;;11.95;57.97;99903.66;10214053;28;20130;-69
2022/05/28 19:41:16;;;;;;;1.77;0.70;;;;;;;11.76;58.96;99906.13;10213030;29;20040;-69
2022/05/28 19:46:18;;;;;;;2.33;0.80;;;;;;;11.71;59.27;99910.72;10231358;29;20543;-67
2022/05/28 19:51:19;;;;;;;2.00;0.93;;;;;;;11.66;59.61;99914.44;10251993;28;20082;-68
2022/05/28 19:56:21;;;;;;;2.67;1.15;;;;;;;11.50;60.17;99922.06;10252312;29;20048;-69
2022/05/28 20:01:27;;;;;;;2.78;0.90;;;;;;;11.50;60.35;99929.94;10251976;28;20043;-66
2022/05/28 20:06:29;;;;;;;2.53;0.80;;;;;;;11.53;60.82;99925.44;10251552;28;20077;-66
2022/05/28 20:11:32;;;;;;;2.67;1.00;;;;;;;11.59;60.96;99919.94;10251324;28;20043;-68
2022/05/28 20:16:34;;;;;;;2.05;1.00;;;;;;;11.66;61.30;99928.47;10251285;28;20051;-68
2022/05/28 20:21:36;;;;;;;1.85;0.70;;;;;;;11.68;61.33;99936.31;10251392;28;20047;-68
2022/05/28 20:26:37;;;;;;;3.08;1.00;;;;;;;11.62;61.81;99922.47;10249662;29;20399;-69
2022/05/28 20:31:41;;;;;;;3.28;1.10;;;;;;;11.54;62.57;99926.28;10297695;22;20050;-71
2022/05/28 20:36:44;;;;;;;4.93;1.17;;;;;;;11.57;62.09;99920.94;10332582;28;20620;-71
2022/05/28 20:41:46;;;;;;;4.00;1.00;;;;;;;11.56;62.92;99922.69;10332090;28;20038;-71
2022/05/28 20:46:48;;;;;;;2.10;0.90;;;;;;;11.55;63.04;99917.47;10333502;28;20100;-71
2022/05/28 20:51:50;;;;;;;3.33;1.15;;;;;;;11.54;62.74;99929.78;10331751;28;20051;-71
2022/05/28 20:56:51;;;;;;;2.15;0.85;;;;;;;11.51;63.16;99916.75;10332339;28;20055;-71
2022/05/28 21:01:53;;;;;;;2.38;0.90;;;;;;;11.49;63.35;99920.34;10332628;28;20047;-71
2022/05/28 21:06:57;;;;;;;3.50;1.05;;;;;;;11.54;63.14;99916.63;10333743;28;20088;-71
2022/05/28 21:11:58;;;;;;;1.88;0.85;;;;;;;11.48;63.92;99921.28;10331341;28;20046;-71
2022/05/28 21:17:01;;;;;;;4.80;1.17;;;;;;;11.55;63.57;99921.00;10330651;28;20062;-71
2022/05/28 21:22:05;;;;;;;3.53;1.38;;;;;;;11.44;63.99;99917.03;10330121;28;20038;-71
2022/05/28 21:32:33;;;;;;;3.22;1.13;;;;;;;11.45;64.14;99914.34;10331297;28;20121;-70
2022/05/28 21:37:35;;;;;;;2.58;1.00;;;;;;;11.57;63.63;99905.97;10331578;28;20107;-71
2022/05/28 21:42:37;;;;;;;1.80;0.90;;;;;;;11.45;64.51;99909.06;10329917;28;20108;-70
2022/05/28 21:47:43;;;;;;;5.32;1.63;;;;;;;11.53;64.36;99912.28;10329374;28;20054;-70
2022/05/28 21:52:45;;;;;;;2.20;1.17;;;;;;;11.52;64.97;99907.09;10330614;28;20046;-70
2022/05/28 21:57:46;;;;;;;3.55;1.35;;;;;;;11.29;65.71;99913.19;10329928;28;20104;-70
2022/05/28 22:02:54;;;;;;;2.83;1.20;;;;;;;11.19;66.32;99907.38;10329355;28;20062;-70
2022/05/28 22:07:56;;;;;;;3.85;1.55;;;;;;;10.88;67.84;99910.25;10329019;28;20487;-70
2022/05/28 22:12:58;;;;;;;3.22;1.10;;;;;;;10.97;67.08;99904.66;10330228;28;20050;-70
2022/05/28 22:18:05;;;;;;;4.55;0.88;;;;;;;10.97;67.60;99896.78;10328683;28;20480;-71
2022/05/28 22:23:07;;;;;;;3.15;1.10;;;;;;;10.94;67.86;99901.31;10328856;28;20042;-71
2022/05/28 22:28:08;;;;;;;3.40;1.00;;;;;;;10.96;67.62;99896.84;10327399;28;20050;-71
2022/05/28 22:33:10;;;;;;;2.50;1.15;;;;;;;10.80;67.71;99894.78;10328976;28;20396;-70
2022/05/28 22:38:13;;;;;;;3.17;1.13;;;;;;;10.70;68.44;99884.59;10328913;28;20137;-70
2022/05/28 22:43:15;;;;;;;4.05;1.15;;;;;;;10.71;67.94;99874.03;10327969;28;20047;-70
2022/05/28 22:48:23;;;;;;;7.10;1.20;;;;;;;10.69;67.89;99873.25;10327607;28;20055;-70
2022/05/28 22:53:43;;;;;;;2.85;1.20;;;;;;;10.35;69.46;99876.16;10328175;28;20453;-70
2022/05/28 22:58:45;;;;;;;4.50;1.15;;;;;;;10.44;68.34;99874.97;10329771;28;20058;-70
2022/05/28 23:03:54;;;;;;;3.47;1.25;;;;;;;10.40;68.12;99871.59;10326228;28;20169;-70
2022/05/28 23:08:55;;;;;;;4.68;1.40;;;;;;;10.36;68.03;99862.13;10327312;28;20039;-70
2022/05/28 23:13:58;;;;;;;3.97;1.65;;;;;;;10.31;68.38;99862.28;10327435;28;20401;-70
2022/05/28 23:19:00;;;;;;;5.07;1.65;;;;;;;10.08;69.20;99855.09;10327457;28;20080;-70
2022/05/28 23:29:23;;;;;;;2.95;1.35;;;;;;;10.07;68.43;99850.75;10334777;28;20099;-70
2022/05/28 23:34:32;;;;;;;7.40;1.30;;;;;;;10.00;68.56;99858.88;10333572;28;20103;-70
2022/05/28 23:39:35;;;;;;;5.40;2.38;;;;;;;10.04;68.10;99858.72;10335727;28;20046;-70
2022/05/28 23:44:37;;;;;;;2.97;0.98;;;;;;;9.87;68.48;99853.16;10332712;28;20047;-70
2022/05/28 23:49:47;;;;;;;4.07;1.27;;;;;;;9.71;69.36;99846.69;10332528;28;20061;-70
2022/05/28 23:54:49;;;;;;;3.95;1.52;;;;;;;9.66;69.89;99844.22;10332420;28;20453;-71
2022/05/28 23:59:50;;;;;;;3.33;1.20;;;;;;;9.57;70.19;99853.22;10332932;28;20046;-71
